createdAt,value
2022-08-28T00:00:29.199Z,-23807.47
2022-08-28T00:03:17.476Z,-23802.16
2022-08-28T00:06:04.901Z,-23798.50
2022-08-28T00:08:51.917Z,-23798.72
2022-08-28T00:11:39.684Z,-23800.19
2022-08-28T00:14:26.931Z,-23796.31
2022-08-28T00:17:13.902Z,-23799.22
2022-08-28T00:20:01.214Z,-23799.22
2022-08-28T00:22:49.719Z,-23798.72
2022-08-28T00:25:37.191Z,-23798.72
2022-08-28T00:28:24.690Z,-23802.16
2022-08-28T00:31:13.370Z,-23802.63
2022-08-28T00:34:02.811Z,-23802.38
2022-08-28T00:36:49.889Z,-23802.63
2022-08-28T00:39:38.517Z,-23802.38
2022-08-28T00:42:25.684Z,-23799.72
2022-08-28T00:45:14.768Z,-23799.72
2022-08-28T00:48:01.835Z,-23799.47
2022-08-28T00:51:08.225Z,-23802.16
2022-08-28T00:53:59.043Z,-23791.22
2022-08-28T00:56:47.742Z,-23796.06
2022-08-28T00:59:34.839Z,-23799.22
2022-08-28T01:02:21.870Z,-23801.16
2022-08-28T01:05:09.796Z,-23801.16
2022-08-28T01:07:59.003Z,-23794.88
2022-08-28T01:10:50.449Z,-23790.72
2022-08-28T01:13:40.160Z,-23792.94
2022-08-28T01:16:33.164Z,-23792.69
2022-08-28T01:19:31.246Z,-23786.38
2022-08-28T01:22:26.902Z,-23787.09
2022-08-28T01:25:21.295Z,-23790.97
2022-08-28T01:28:12.475Z,-23788.53
2022-08-28T01:30:59.819Z,-23791.47
2022-08-28T01:33:47.588Z,-23788.53
2022-08-28T01:36:34.731Z,-23783.19
2022-08-28T01:39:23.960Z,-23791.22
2022-08-28T01:42:11.237Z,-23787.09
2022-08-28T01:44:58.295Z,-23783.44
2022-08-28T01:47:46.399Z,-23785.63
2022-08-28T01:50:36.924Z,-23784.19
2022-08-28T01:53:32.685Z,-23788.06
2022-08-28T01:56:20.157Z,-23786.84
2022-08-28T01:59:09.962Z,-23788.53
2022-08-28T02:01:56.887Z,-23789.53
2022-08-28T02:04:47.905Z,-23792.94
2022-08-28T02:07:35.576Z,-23789.03
2022-08-28T02:10:25.588Z,-23789.53
2022-08-28T02:13:14.723Z,-23790.97
2022-08-28T02:16:02.354Z,-23788.31
2022-08-28T02:18:49.396Z,-23781.03
2022-08-28T02:21:36.399Z,-23785.63
2022-08-28T02:24:23.838Z,-23783.44
2022-08-28T02:27:10.862Z,-23787.81
2022-08-28T02:29:58.971Z,-23789.53
2022-08-28T02:32:46.421Z,-23787.09
2022-08-28T02:35:33.472Z,-23793.63
2022-08-28T02:38:20.923Z,-23788.31
2022-08-28T02:41:08.755Z,-23785.88
2022-08-28T02:43:55.910Z,-23779.31
2022-08-28T02:46:43.286Z,-23774.47
2022-08-28T02:49:31.385Z,-23774.97
2022-08-28T02:52:24.715Z,-23766.69
2022-08-28T02:55:13.592Z,-23767.69
2022-08-28T02:58:00.991Z,-23767.69
2022-08-28T03:00:48.968Z,-23768.41
2022-08-28T03:03:36.151Z,-23771.56
2022-08-28T03:06:24.933Z,-23773.97
2022-08-28T03:09:11.968Z,-23772.03
2022-08-28T03:11:58.962Z,-23772.78
2022-08-28T03:14:46.013Z,-23770.84
2022-08-28T03:17:32.989Z,-23768.16
2022-08-28T03:20:20.012Z,-23759.91
2022-08-28T03:23:26.145Z,-23757.00
2022-08-28T03:26:17.641Z,-23752.63
2022-08-28T03:29:04.799Z,-23748.25
2022-08-28T03:31:51.855Z,-23752.38
2022-08-28T03:34:38.857Z,-23752.13
2022-08-28T03:37:26.208Z,-23749.72
2022-08-28T03:40:14.713Z,-23753.34
2022-08-28T03:43:01.970Z,-23745.34
2022-08-28T03:45:53.080Z,-23749.72
2022-08-28T03:48:41.049Z,-23743.66
2022-08-28T03:51:34.381Z,-23739.03
2022-08-28T03:54:21.392Z,-23736.38
2022-08-28T03:57:08.463Z,-23735.16
2022-08-28T03:59:55.381Z,-23742.44
2022-08-28T04:02:43.900Z,-23744.63
2022-08-28T04:05:30.815Z,-23749.47
2022-08-28T04:08:20.148Z,-23747.78
2022-08-28T04:11:07.269Z,-23745.84
2022-08-28T04:13:54.619Z,-23743.16
2022-08-28T04:16:41.805Z,-23742.19
2022-08-28T04:19:29.988Z,-23741.47
2022-08-28T04:22:16.984Z,-23739.03
2022-08-28T04:25:06.308Z,-23742.91
2022-08-28T04:27:53.586Z,-23742.91
2022-08-28T04:30:41.586Z,-23735.16
2022-08-28T04:33:29.158Z,-23732.25
2022-08-28T04:36:18.840Z,-23731.28
2022-08-28T04:39:08.683Z,-23724.00
2022-08-28T04:41:56.121Z,-23726.19
2022-08-28T04:44:43.247Z,-23726.66
2022-08-28T04:47:31.159Z,-23729.34
2022-08-28T04:50:18.170Z,-23724.97
2022-08-28T04:53:05.111Z,-23720.84
2022-08-28T04:55:54.390Z,-23728.34
2022-08-28T04:58:44.546Z,-23732.25
2022-08-28T05:01:31.752Z,-23735.66
2022-08-28T05:04:19.897Z,-23734.19
2022-08-28T05:07:06.941Z,-23739.78
2022-08-28T05:09:54.924Z,-23737.09
2022-08-28T05:12:42.147Z,-23735.16
2022-08-28T05:15:29.138Z,-23739.28
2022-08-28T05:18:18.307Z,-23738.56
2022-08-28T05:21:05.257Z,-23746.31
2022-08-28T05:23:56.585Z,-23746.09
2022-08-28T05:26:43.622Z,-23735.66
2022-08-28T05:29:35.111Z,-23740.00
2022-08-28T05:32:22.126Z,-23737.56
2022-08-28T05:35:09.198Z,-23738.06
2022-08-28T05:37:56.243Z,-23736.38
2022-08-28T05:40:49.575Z,-23735.66
2022-08-28T05:43:36.852Z,-23738.06
2022-08-28T05:46:23.980Z,-23740.75
2022-08-28T05:49:12.518Z,-23738.78
2022-08-28T05:51:59.670Z,-23735.16
2022-08-28T05:54:46.626Z,-23736.13
2022-08-28T05:57:33.879Z,-23737.81
2022-08-28T06:00:21.098Z,-23735.41
2022-08-28T06:03:08.759Z,-23743.88
2022-08-28T06:05:56.155Z,-23731.28
2022-08-28T06:08:58.039Z,-23739.78
2022-08-28T06:11:46.545Z,-23728.34
2022-08-28T06:14:33.712Z,-23733.22
2022-08-28T06:17:23.771Z,-23727.88
2022-08-28T06:20:11.294Z,-23737.09
2022-08-28T06:22:58.994Z,-23747.28
2022-08-28T06:25:49.363Z,-23755.53
2022-08-28T06:28:36.367Z,-23768.41
2022-08-28T06:31:26.553Z,-23762.59
2022-08-28T06:34:15.207Z,-23767.69
2022-08-28T06:37:02.201Z,-23765.25
2022-08-28T06:39:49.280Z,-23767.19
2022-08-28T06:42:36.539Z,-23754.56
2022-08-28T06:45:23.491Z,-23751.66
2022-08-28T06:48:12.556Z,-23757.72
2022-08-28T06:50:59.974Z,-23757.00
2022-08-28T06:53:47.091Z,-23759.41
2022-08-28T06:56:34.658Z,-23768.16
2022-08-28T06:59:21.677Z,-23765.25
2022-08-28T07:02:09.604Z,-23753.84
2022-08-28T07:04:56.852Z,-23755.53
2022-08-28T07:07:43.812Z,-23763.31
2022-08-28T07:10:31.412Z,-23763.53
2022-08-28T07:13:18.685Z,-23772.03
2022-08-28T07:16:07.997Z,-23771.31
2022-08-28T07:18:56.194Z,-23777.16
2022-08-28T07:21:45.694Z,-23777.38
2022-08-28T07:24:32.672Z,-23773.00
2022-08-28T07:27:20.974Z,-23765.25
2022-08-28T07:30:10.295Z,-23775.94
2022-08-28T07:32:57.356Z,-23779.31
2022-08-28T07:35:44.725Z,-23772.53
2022-08-28T07:38:31.669Z,-23771.06
2022-08-28T07:41:25.787Z,-23780.78
2022-08-28T07:44:33.163Z,-23784.66
2022-08-28T07:47:20.405Z,-23794.88
2022-08-28T07:50:07.636Z,-23790.97
2022-08-28T07:52:54.703Z,-23797.78
2022-08-28T07:55:41.704Z,-23797.03
2022-08-28T07:58:28.895Z,-23794.38
2022-08-28T08:01:17.529Z,-23792.44
2022-08-28T08:04:07.568Z,-23787.81
2022-08-28T08:06:57.802Z,-23788.78
2022-08-28T08:09:46.607Z,-23792.69
2022-08-28T08:12:34.775Z,-23797.03
2022-08-28T08:15:21.977Z,-23799.47
2022-08-28T08:18:09.078Z,-23799.72
2022-08-28T08:20:56.294Z,-23795.09
2022-08-28T08:23:43.424Z,-23794.63
2022-08-28T08:26:30.421Z,-23792.44
2022-08-28T08:29:17.542Z,-23800.69
2022-08-28T08:32:10.802Z,-23810.41
2022-08-28T08:34:57.834Z,-23817.19
2022-08-28T08:37:44.868Z,-23818.91
2022-08-28T08:40:32.169Z,-23823.75
2022-08-28T08:43:21.417Z,-23820.59
2022-08-28T08:46:09.736Z,-23830.78
2022-08-28T08:48:59.858Z,-23847.03
2022-08-28T08:51:54.050Z,-23849.97
2022-08-28T08:54:42.918Z,-23851.66
2022-08-28T08:57:31.779Z,-23853.63
2022-08-28T09:00:20.173Z,-23856.28
2022-08-28T09:03:14.259Z,-23855.06
2022-08-28T09:06:05.546Z,-23864.78
2022-08-28T09:08:59.753Z,-23858.47
2022-08-28T09:11:57.957Z,-23857.97
2022-08-28T09:14:57.593Z,-23863.78
2022-08-28T09:18:06.771Z,-23863.78
2022-08-28T09:20:56.439Z,-23866.22
2022-08-28T09:23:43.510Z,-23858.94
2022-08-28T09:26:34.329Z,-23856.53
2022-08-28T09:29:31.601Z,-23864.78
2022-08-28T09:32:25.222Z,-23867.19
2022-08-28T09:35:27.309Z,-23878.63
2022-08-28T09:38:22.874Z,-23880.78
2022-08-28T09:41:33.212Z,-23887.09
2022-08-28T09:44:20.217Z,-23892.44
2022-08-28T09:47:07.222Z,-23885.41
2022-08-28T09:49:54.267Z,-23898.75
2022-08-28T09:52:41.545Z,-23899.25
2022-08-28T09:55:35.738Z,-23895.34
2022-08-28T09:58:24.587Z,-23884.91
2022-08-28T10:01:20.245Z,-23895.13
2022-08-28T10:04:19.534Z,-23895.13
2022-08-28T10:07:15.354Z,-23898.28
2022-08-28T10:10:14.352Z,-23905.31
2022-08-28T10:13:52.264Z,-23908.47
2022-08-28T10:17:16.666Z,-23916.25
2022-08-28T10:20:16.742Z,-23928.38
2022-08-28T10:23:08.111Z,-23921.59
2022-08-28T10:26:10.115Z,-23925.47
2022-08-28T10:29:11.343Z,-23935.19
2022-08-28T10:32:34.021Z,-23941.97
2022-08-28T10:35:33.594Z,-23948.28
2022-08-28T10:38:31.020Z,-23938.34
2022-08-28T10:41:38.909Z,-23949.25
2022-08-28T10:44:34.270Z,-23951.44
2022-08-28T10:47:23.901Z,-23944.91
2022-08-28T10:50:22.015Z,-23961.41
2022-08-28T10:53:18.376Z,-23965.53
2022-08-28T10:56:23.263Z,-23975.50
2022-08-28T10:59:10.280Z,-23977.69
2022-08-28T11:01:58.699Z,-23968.22
2022-08-28T11:04:46.827Z,-23974.78
2022-08-28T11:07:38.778Z,-23960.69
2022-08-28T11:10:38.883Z,-23960.94
2022-08-28T11:13:43.081Z,-23971.59
2022-08-28T11:16:30.370Z,-23972.59
2022-08-28T11:19:34.203Z,-23986.91
2022-08-28T11:22:25.036Z,-23995.41
2022-08-28T11:25:26.474Z,-23990.56
2022-08-28T11:28:44.323Z,-23996.38
2022-08-28T11:31:35.562Z,-23999.06
2022-08-28T11:34:58.308Z,-23997.59
2022-08-28T11:37:50.488Z,-24001.97
2022-08-28T11:40:54.974Z,-24006.84
2022-08-28T11:43:44.784Z,-24007.53
2022-08-28T11:46:33.874Z,-24006.59
2022-08-28T11:49:24.607Z,-24005.84
2022-08-28T11:52:23.397Z,-24010.72
2022-08-28T11:55:41.057Z,-24018.97
2022-08-28T11:59:07.959Z,-24019.44
2022-08-28T12:02:17.518Z,-24021.16
2022-08-28T12:05:06.970Z,-24024.06
2022-08-28T12:07:54.050Z,-24035.72
2022-08-28T12:10:56.563Z,-24041.56
2022-08-28T12:13:48.894Z,-24048.59
2022-08-28T12:17:03.980Z,-24046.41
2022-08-28T12:19:58.065Z,-24051.75
2022-08-28T12:22:55.157Z,-24057.59
2022-08-28T12:25:44.183Z,-24061.97
2022-08-28T12:28:43.934Z,-24066.09
2022-08-28T12:32:14.575Z,-24064.88
2022-08-28T12:35:02.470Z,-24061.22
2022-08-28T12:37:55.944Z,-24065.34
2022-08-28T12:40:53.372Z,-24071.66
2022-08-28T12:43:46.534Z,-24066.81
2022-08-28T12:46:38.209Z,-24074.59
2022-08-28T12:49:30.678Z,-24069.72
2022-08-28T12:52:24.638Z,-24057.59
2022-08-28T12:55:11.884Z,-24074.59
2022-08-28T12:57:58.928Z,-24079.44
2022-08-28T13:00:55.785Z,-24079.94
2022-08-28T13:03:49.240Z,-24079.44
2022-08-28T13:06:38.846Z,-24085.28
2022-08-28T13:09:28.485Z,-24085.75
2022-08-28T13:12:54.993Z,-24077.25
2022-08-28T13:16:03.638Z,-24070.47
2022-08-28T13:19:10.808Z,-24077.50
2022-08-28T13:22:02.003Z,-24081.16
2022-08-28T13:24:48.972Z,-24090.13
2022-08-28T13:27:36.276Z,-24100.34
2022-08-28T13:30:34.396Z,-24097.44
2022-08-28T13:33:23.079Z,-24096.44
2022-08-28T13:36:21.787Z,-24097.91
2022-08-28T13:39:09.901Z,-24103.25
2022-08-28T13:41:59.954Z,-24102.53
2022-08-28T13:44:50.809Z,-24113.22
2022-08-28T13:47:37.919Z,-24114.19
2022-08-28T13:50:24.887Z,-24107.88
2022-08-28T13:53:12.197Z,-24108.09
2022-08-28T13:56:00.727Z,-24109.81
2022-08-28T13:58:47.926Z,-24109.81
2022-08-28T14:02:03.885Z,-24112.00
2022-08-28T14:04:51.020Z,-24113.94
2022-08-28T14:07:38.113Z,-24116.84
2022-08-28T14:10:25.094Z,-24113.94
2022-08-28T14:13:12.921Z,-24112.97
2022-08-28T14:16:03.929Z,-24114.44
2022-08-28T14:18:52.961Z,-24115.41
2022-08-28T14:21:40.984Z,-24119.03
2022-08-28T14:24:28.480Z,-24127.53
2022-08-28T14:27:15.470Z,-24136.28
2022-08-28T14:30:02.550Z,-24135.31
2022-08-28T14:32:49.527Z,-24138.47
2022-08-28T14:35:40.951Z,-24138.47
2022-08-28T14:38:27.910Z,-24128.50
2022-08-28T14:41:15.677Z,-24133.13
2022-08-28T14:46:52.726Z,-24141.16
2022-08-28T14:49:44.400Z,-24134.34
2022-08-28T14:52:31.510Z,-24125.13
2022-08-28T14:55:18.894Z,-24126.56
2022-08-28T14:58:06.018Z,-24120.25
2022-08-28T15:00:53.236Z,-24115.41
2022-08-28T15:03:40.676Z,-24117.84
2022-08-28T15:06:28.446Z,-24131.19
2022-08-28T15:09:15.534Z,-24145.03
2022-08-28T15:12:02.741Z,-24153.53
2022-08-28T15:14:54.574Z,-24142.84
2022-08-28T15:17:44.203Z,-24137.50
2022-08-28T15:20:31.709Z,-24139.22
2022-08-28T15:23:18.693Z,-24146.97
2022-08-28T15:26:05.814Z,-24156.22
2022-08-28T15:28:55.903Z,-24156.69
2022-08-28T15:31:46.273Z,-24156.94
2022-08-28T15:34:33.547Z,-24151.84
2022-08-28T15:37:20.638Z,-24148.69
2022-08-28T15:40:27.201Z,-24154.03
2022-08-28T15:43:14.391Z,-24157.19
2022-08-28T15:46:09.694Z,-24157.66
2022-08-28T15:48:58.001Z,-24152.56
2022-08-28T15:51:45.111Z,-24153.78
2022-08-28T15:54:32.432Z,-24157.66
2022-08-28T15:57:19.526Z,-24153.78
2022-08-28T16:00:10.376Z,-24156.69
2022-08-28T16:03:00.964Z,-24148.91
2022-08-28T16:05:47.951Z,-24159.13
2022-08-28T16:08:34.977Z,-24150.38
2022-08-28T16:11:23.506Z,-24148.91
2022-08-28T16:14:12.327Z,-24155.72
2022-08-28T16:16:59.588Z,-24166.66
2022-08-28T16:19:53.061Z,-24168.34
2022-08-28T16:22:40.622Z,-24170.56
2022-08-28T16:25:28.027Z,-24179.28
2022-08-28T16:28:15.226Z,-24172.72
2022-08-28T16:31:07.573Z,-24162.53
2022-08-28T16:34:07.001Z,-24172.00
2022-08-28T16:36:57.416Z,-24167.63
2022-08-28T16:39:44.406Z,-24167.13
2022-08-28T16:42:32.944Z,-24164.00
2022-08-28T16:45:20.514Z,-24172.25
2022-08-28T16:48:07.433Z,-24180.50
2022-08-28T16:50:54.417Z,-24177.34
2022-08-28T16:53:42.817Z,-24178.56
2022-08-28T16:56:29.869Z,-24175.66
2022-08-28T16:59:19.110Z,-24170.31
2022-08-28T17:02:06.122Z,-24176.63
2022-08-28T17:04:55.896Z,-24176.13
2022-08-28T17:07:43.715Z,-24166.41
2022-08-28T17:10:31.631Z,-24172.00
2022-08-28T17:13:18.644Z,-24175.16
2022-08-28T17:16:06.265Z,-24169.81
2022-08-28T17:18:53.560Z,-24165.19
2022-08-28T17:21:59.342Z,-24171.75
2022-08-28T17:24:46.963Z,-24160.09
2022-08-28T17:27:36.764Z,-24166.91
2022-08-28T17:30:24.083Z,-24165.44
2022-08-28T17:33:11.138Z,-24164.94
2022-08-28T17:36:00.040Z,-24157.66
2022-08-28T17:38:47.502Z,-24164.00
2022-08-28T17:41:35.069Z,-24165.94
2022-08-28T17:44:22.137Z,-24162.53
2022-08-28T17:47:09.475Z,-24161.56
2022-08-28T17:49:56.544Z,-24150.63
2022-08-28T17:52:43.592Z,-24156.22
2022-08-28T17:55:31.004Z,-24156.44
2022-08-28T17:58:17.982Z,-24154.50
2022-08-28T18:01:05.131Z,-24155.97
2022-08-28T18:03:55.646Z,-24147.97
2022-08-28T18:06:43.218Z,-24139.22
2022-08-28T18:09:30.345Z,-24133.13
2022-08-28T18:12:17.641Z,-24127.06
2022-08-28T18:15:06.346Z,-24114.44
2022-08-28T18:17:53.329Z,-24104.69
2022-08-28T18:20:41.725Z,-24099.59
2022-08-28T18:23:29.259Z,-24094.50
2022-08-28T18:26:17.694Z,-24087.22
2022-08-28T18:29:04.849Z,-24082.84
2022-08-28T18:31:51.956Z,-24074.34
2022-08-28T18:34:39.132Z,-24069.97
2022-08-28T18:37:26.429Z,-24068.25
2022-08-28T18:40:13.666Z,-24064.88
2022-08-28T18:43:00.812Z,-24060.25
2022-08-28T18:45:48.031Z,-24055.16
2022-08-28T18:48:36.435Z,-24052.97
2022-08-28T18:51:23.474Z,-24048.34
2022-08-28T18:54:13.222Z,-24044.97
2022-08-28T18:57:04.135Z,-24044.72
2022-08-28T18:59:51.702Z,-24040.81
2022-08-28T19:02:41.571Z,-24041.56
2022-08-28T19:05:29.468Z,-24033.78
2022-08-28T19:08:16.546Z,-24032.31
2022-08-28T19:11:07.867Z,-24035.00
2022-08-28T19:13:54.937Z,-24039.13
2022-08-28T19:16:41.924Z,-24030.13
2022-08-28T19:19:29.376Z,-24026.00
2022-08-28T19:22:17.363Z,-24023.09
2022-08-28T19:25:06.398Z,-24018.47
2022-08-28T19:28:02.007Z,-24019.22
2022-08-28T19:30:49.467Z,-24017.25
2022-08-28T19:33:36.689Z,-24018.72
2022-08-28T19:36:27.187Z,-24018.25
2022-08-28T19:39:14.343Z,-24017.75
2022-08-28T19:42:01.734Z,-24001.97
2022-08-28T19:44:51.226Z,-23991.53
2022-08-28T19:47:47.213Z,-24001.72
2022-08-28T19:50:34.283Z,-24002.22
2022-08-28T19:53:21.469Z,-24000.50
2022-08-28T19:56:09.843Z,-23997.09
2022-08-28T19:58:59.240Z,-24000.75
2022-08-28T20:01:46.733Z,-23986.66
2022-08-28T20:04:33.760Z,-23986.19
2022-08-28T20:07:20.916Z,-23985.69
2022-08-28T20:10:08.611Z,-23984.25
2022-08-28T20:12:56.584Z,-23970.16
2022-08-28T20:15:46.257Z,-23977.94
2022-08-28T20:18:33.740Z,-23969.19
2022-08-28T20:21:37.504Z,-23970.16
2022-08-28T20:24:25.313Z,-23964.06
2022-08-28T20:27:12.323Z,-23952.91
2022-08-28T20:30:00.800Z,-23956.78
2022-08-28T20:32:58.060Z,-23955.56
2022-08-28T20:35:45.215Z,-23952.19
2022-08-28T20:38:32.503Z,-23948.78
2022-08-28T20:41:20.952Z,-23947.09
2022-08-28T20:44:10.311Z,-23942.72
2022-08-28T20:46:57.433Z,-23941.97
2022-08-28T20:49:44.422Z,-23940.78
2022-08-28T20:52:31.537Z,-23940.03
2022-08-28T20:55:18.768Z,-23938.81
2022-08-28T20:58:05.891Z,-23933.00
2022-08-28T21:00:54.022Z,-23931.31
2022-08-28T21:03:46.772Z,-23931.78
2022-08-28T21:06:34.501Z,-23930.31
2022-08-28T21:09:23.143Z,-23932.28
2022-08-28T21:12:29.412Z,-23929.84
2022-08-28T21:15:17.786Z,-23924.25
2022-08-28T21:18:05.538Z,-23916.72
2022-08-28T21:20:52.617Z,-23915.28
2022-08-28T21:23:42.944Z,-23920.13
2022-08-28T21:26:29.999Z,-23919.63
2022-08-28T21:29:22.050Z,-23928.63
2022-08-28T21:32:09.564Z,-23926.69
2022-08-28T21:34:57.406Z,-23929.34
2022-08-28T21:37:44.736Z,-23914.31
2022-08-28T21:40:31.899Z,-23908.47
2022-08-28T21:43:19.332Z,-23906.53
2022-08-28T21:46:07.089Z,-23895.34
2022-08-28T21:48:56.321Z,-23894.63
2022-08-28T21:51:43.302Z,-23891.72
2022-08-28T21:54:30.432Z,-23891.97
2022-08-28T21:57:17.856Z,-23890.50
2022-08-28T22:00:21.733Z,-23892.22
2022-08-28T22:03:08.826Z,-23890.03
2022-08-28T22:05:56.808Z,-23898.03
2022-08-28T22:08:44.580Z,-23896.56
2022-08-28T22:11:31.848Z,-23895.34
2022-08-28T22:14:18.945Z,-23900.22
2022-08-28T22:17:10.780Z,-23906.78
2022-08-28T22:19:58.876Z,-23904.34
2022-08-28T22:23:04.275Z,-23899.50
2022-08-28T22:25:51.227Z,-23890.50
2022-08-28T22:28:38.432Z,-23879.59
2022-08-28T22:31:26.115Z,-23871.31
2022-08-28T22:34:13.716Z,-23875.44
2022-08-28T22:37:00.748Z,-23882.00
2022-08-28T22:39:47.805Z,-23886.63
2022-08-28T22:42:34.912Z,-23896.34
2022-08-28T22:45:26.202Z,-23895.59
2022-08-28T22:48:14.900Z,-23887.84
2022-08-28T22:51:08.359Z,-23884.19
2022-08-28T22:53:55.803Z,-23878.38
2022-08-28T22:56:43.018Z,-23873.03
2022-08-28T22:59:29.928Z,-23874.00
2022-08-28T23:02:18.557Z,-23876.66
2022-08-28T23:05:06.400Z,-23878.38
2022-08-28T23:07:53.662Z,-23879.34
2022-08-28T23:10:58.066Z,-23883.94
2022-08-28T23:13:46.075Z,-23879.09
2022-08-28T23:16:35.101Z,-23874.72
2022-08-28T23:19:22.420Z,-23880.31
2022-08-28T23:22:09.472Z,-23876.44
2022-08-28T23:24:56.649Z,-23864.78
2022-08-28T23:27:44.714Z,-23868.16
2022-08-28T23:30:32.251Z,-23860.88
2022-08-28T23:33:24.012Z,-23853.84
2022-08-28T23:36:11.665Z,-23846.31
2022-08-28T23:38:58.716Z,-23847.78
2022-08-28T23:41:47.068Z,-23862.84
2022-08-28T23:44:34.014Z,-23856.75
2022-08-28T23:47:21.063Z,-23862.84
2022-08-28T23:50:12.484Z,-23860.88
2022-08-28T23:52:59.968Z,-23871.56
2022-08-28T23:55:48.656Z,-23857.00
2022-08-28T23:58:35.896Z,-23855.31
